Time;durP1;ratioP1;P1;durP2;ratioP2;P2;SDS_P1;SDS_P2;PMS_P1;PMS_P2;Temp;Humidity;BMP_temperature;BMP_pressure;BME280_temperature;BME280_humidity;BME280_pressure;Samples;Min_cycle;Max_cycle;Signal;HPM_P1;HPM_P2
2023/05/15 00:01:06;;;;;;;8.93;6.10;;;;;;;12.53;100.00;95814.38;4997036;28;20092;-88
2023/05/15 00:03:32;;;;;;;9.83;5.87;;;;;;;12.44;100.00;95826.84;5012754;28;20057;-86
2023/05/15 00:05:57;;;;;;;7.50;4.93;;;;;;;12.39;100.00;95813.38;5012337;28;20036;-88
2023/05/15 00:08:23;;;;;;;8.30;5.70;;;;;;;12.18;100.00;95821.16;5013218;28;20115;-88
2023/05/15 00:10:56;;;;;;;7.57;4.97;;;;;;;12.55;100.00;95808.94;4997592;28;20029;-87
2023/05/15 00:13:21;;;;;;;9.32;5.88;;;;;;;12.39;100.00;95808.09;4997419;28;20044;-88
2023/05/15 00:15:47;;;;;;;8.10;4.90;;;;;;;12.42;100.00;95805.09;5006501;28;20033;-88
2023/05/15 00:18:12;;;;;;;8.60;5.70;;;;;;;12.48;100.00;95812.28;5004817;28;20058;-87
2023/05/15 00:20:38;;;;;;;9.10;5.20;;;;;;;12.68;100.00;95798.56;5028960;28;20083;-88
2023/05/15 00:23:03;;;;;;;6.90;4.77;;;;;;;12.99;100.00;95793.06;4989641;28;20048;-88
2023/05/15 00:25:29;;;;;;;7.87;5.53;;;;;;;13.02;100.00;95792.69;5004395;28;20032;-88
2023/05/15 00:27:59;;;;;;;7.60;5.30;;;;;;;12.14;100.00;95791.72;4994916;28;20076;-88
2023/05/15 00:30:24;;;;;;;10.47;5.80;;;;;;;11.82;100.00;95789.34;5002960;22;20085;-87
2023/05/15 00:32:50;;;;;;;9.20;5.47;;;;;;;11.77;100.00;95781.97;4977270;28;20121;-87
2023/05/15 00:35:16;;;;;;;9.03;5.93;;;;;;;12.08;100.00;95791.63;5007657;28;20032;-87
2023/05/15 00:37:42;;;;;;;8.63;5.03;;;;;;;12.32;100.00;95780.81;4979116;28;20033;-87
2023/05/15 00:40:15;;;;;;;8.30;4.83;;;;;;;12.16;100.00;95773.88;5010186;28;20030;-87
2023/05/15 00:42:40;;;;;;;8.03;5.67;;;;;;;12.31;100.00;95773.06;4990697;28;20033;-87
2023/05/15 00:45:09;;;;;;;6.67;4.60;;;;;;;12.45;100.00;95774.91;4991800;28;20156;-87
2023/05/15 00:47:35;;;;;;;8.13;4.60;;;;;;;12.64;100.00;95774.38;4999202;28;20030;-87
2023/05/15 00:50:01;;;;;;;8.63;5.37;;;;;;;12.47;100.00;95771.09;4995919;28;20148;-87
2023/05/15 00:52:28;;;;;;;13.70;5.83;;;;;;;12.51;100.00;95774.19;4991361;28;20018;-87
2023/05/15 00:54:59;;;;;;;9.00;6.00;;;;;;;12.21;100.00;95768.09;4998302;28;20033;-87
2023/05/15 00:57:26;;;;;;;12.40;7.63;;;;;;;12.11;100.00;95778.09;4997772;28;20022;-87
2023/05/15 00:59:56;;;;;;;13.53;8.13;;;;;;;12.52;100.00;95767.09;4985355;28;20054;-87
2023/05/15 01:02:23;;;;;;;11.40;6.67;;;;;;;12.30;100.00;95776.72;4973121;28;20045;-87
2023/05/15 01:04:48;;;;;;;9.90;6.07;;;;;;;12.35;100.00;95767.28;4992107;28;20026;-87
2023/05/15 01:07:14;;;;;;;7.53;5.30;;;;;;;12.21;100.00;95765.47;4975606;28;20053;-87
2023/05/15 01:09:45;;;;;;;7.23;5.20;;;;;;;12.20;100.00;95756.69;5009033;28;20037;-87
2023/05/15 01:12:13;;;;;;;7.97;5.40;;;;;;;12.32;100.00;95761.53;4976871;28;20042;-87
2023/05/15 01:14:52;;;;;;;13.27;5.73;;;;;;;12.30;100.00;95750.34;4981814;28;20081;-87
2023/05/15 01:17:18;;;;;;;8.43;5.53;;;;;;;12.20;100.00;95763.78;5010225;28;20029;-88
2023/05/15 01:19:47;;;;;;;8.47;5.63;;;;;;;12.05;100.00;95755.88;4982730;28;20127;-89
2023/05/15 01:22:37;;;;;;;8.10;5.80;;;;;;;12.26;100.00;95752.53;4993188;28;20044;-89
2023/05/15 01:25:30;;;;;;;9.27;6.00;;;;;;;12.46;100.00;95755.44;4992938;28;20044;-89
2023/05/15 01:28:00;;;;;;;7.55;5.10;;;;;;;12.58;100.00;95755.81;4993408;28;20118;-89
2023/05/15 01:30:29;;;;;;;8.83;5.53;;;;;;;12.58;100.00;95755.81;4993411;28;20053;-89
2023/05/15 01:33:10;;;;;;;7.37;5.10;;;;;;;12.36;100.00;95755.72;5001268;28;20021;-89
2023/05/15 01:35:54;;;;;;;6.37;4.47;;;;;;;12.40;100.00;95764.09;4987637;28;20033;-89
2023/05/15 01:38:41;;;;;;;8.38;5.93;;;;;;;12.40;100.00;95761.44;4989766;28;20399;-89
2023/05/15 01:41:30;;;;;;;8.27;4.80;;;;;;;12.24;100.00;95754.56;4993334;28;20064;-89
2023/05/15 01:44:07;;;;;;;7.93;5.30;;;;;;;12.02;100.00;95762.31;4981778;28;20058;-89
2023/05/15 01:46:41;;;;;;;8.97;5.80;;;;;;;11.96;100.00;95764.88;4978470;28;20021;-89
2023/05/15 01:49:09;;;;;;;7.13;4.80;;;;;;;12.16;100.00;95755.44;5009560;28;20020;-89
2023/05/15 01:51:37;;;;;;;8.60;5.87;;;;;;;12.22;100.00;95756.53;4993570;28;20553;-89
2023/05/15 01:54:05;;;;;;;7.97;5.67;;;;;;;12.19;100.00;95762.16;4986989;28;20030;-89
2023/05/15 01:56:33;;;;;;;11.40;6.93;;;;;;;12.16;100.00;95759.88;4994952;28;20026;-89
2023/05/15 01:58:59;;;;;;;9.07;7.07;;;;;;;12.36;100.00;95755.72;4982018;28;20077;-89
2023/05/15 02:02:04;;;;;;;11.33;7.73;;;;;;;12.23;100.00;95755.53;4988177;28;20025;-90
2023/05/15 02:04:32;;;;;;;10.23;7.33;;;;;;;12.39;100.00;95755.34;4995348;28;20026;-89
2023/05/15 02:07:00;;;;;;;12.17;6.87;;;;;;;12.39;100.00;95750.09;4990736;28;20057;-89
2023/05/15 02:09:27;;;;;;;12.47;7.97;;;;;;;12.31;100.00;95746.69;4989532;28;20096;-89
2023/05/15 02:11:53;;;;;;;11.80;7.30;;;;;;;12.25;100.00;95750.91;4977739;28;20129;-89
2023/05/15 02:14:19;;;;;;;10.60;7.70;;;;;;;12.36;100.00;95749.63;4992736;28;20037;-88
2023/05/15 02:16:45;;;;;;;9.87;7.67;;;;;;;12.24;100.00;95744.81;4979760;28;20113;-89
2023/05/15 02:19:10;;;;;;;11.30;8.07;;;;;;;12.14;100.00;95746.91;4995282;28;20048;-89
2023/05/15 02:21:36;;;;;;;14.60;9.07;;;;;;;12.25;100.00;95735.91;4993967;28;20100;-89
2023/05/15 02:24:02;;;;;;;12.37;8.80;;;;;;;12.42;100.00;95739.16;4977328;28;20173;-89
2023/05/15 02:26:46;;;;;;;11.57;8.17;;;;;;;12.24;100.00;95741.38;4993648;28;20042;-89
2023/05/15 02:29:24;;;;;;;12.30;8.33;;;;;;;12.26;100.00;95744.63;4987693;28;20085;-89
2023/05/15 02:31:53;;;;;;;14.10;9.00;;;;;;;12.11;100.00;95739.34;4980647;28;20038;-88
2023/05/15 02:34:35;;;;;;;12.47;8.33;;;;;;;12.14;100.00;95744.28;5006332;28;20034;-89
2023/05/15 02:37:03;;;;;;;10.53;8.30;;;;;;;12.16;100.00;95739.63;4973544;28;20039;-89
2023/05/15 02:39:30;;;;;;;12.23;8.97;;;;;;;12.29;100.00;95741.63;4994563;28;21291;-89
2023/05/15 02:41:56;;;;;;;12.37;9.27;;;;;;;12.27;100.00;95740.97;4994321;28;20065;-89
2023/05/15 02:44:34;;;;;;;11.60;9.03;;;;;;;12.26;100.00;95742.81;4988186;28;20439;-89
2023/05/15 02:47:00;;;;;;;11.87;9.07;;;;;;;12.31;100.00;95744.06;4989642;28;20563;-89
2023/05/15 02:49:26;;;;;;;12.90;9.77;;;;;;;12.17;100.00;95745.69;4994972;28;20483;-89
2023/05/15 02:51:51;;;;;;;14.83;9.47;;;;;;;12.22;100.00;95741.53;4978290;28;20042;-89
2023/05/15 02:54:17;;;;;;;15.07;8.73;;;;;;;12.22;100.00;95748.63;4976500;28;20061;-88
2023/05/15 02:56:43;;;;;;;13.47;9.57;;;;;;;12.05;100.00;95747.97;4990134;28;20085;-89
2023/05/15 02:59:08;;;;;;;15.20;9.73;;;;;;;11.90;100.00;95755.84;5009283;28;20036;-88
2023/05/15 03:01:37;;;;;;;13.47;9.63;;;;;;;12.01;100.00;95747.53;4975502;28;20065;-88
2023/05/15 03:04:09;;;;;;;13.60;10.07;;;;;;;11.92;100.00;95747.78;4972225;28;20448;-89
2023/05/15 03:06:34;;;;;;;13.20;9.90;;;;;;;11.90;100.00;95755.03;4990213;28;20026;-89
2023/05/15 03:09:00;;;;;;;13.00;9.43;;;;;;;11.86;100.00;95753.75;4987784;28;20037;-88
2023/05/15 03:11:26;;;;;;;14.67;10.50;;;;;;;11.69;100.00;95745.97;4978247;28;20038;-86
2023/05/15 03:13:52;;;;;;;14.87;11.30;;;;;;;11.70;100.00;95754.69;4979208;28;20201;-86
2023/05/15 03:16:17;;;;;;;14.40;10.83;;;;;;;11.84;100.00;95753.06;4998322;28;20076;-87
2023/05/15 03:18:43;;;;;;;13.47;9.93;;;;;;;11.65;100.00;95743.88;5010386;28;20085;-86
2023/05/15 03:21:09;;;;;;;15.00;11.70;;;;;;;11.49;100.00;95750.09;4992213;28;20032;-87
2023/05/15 03:23:34;;;;;;;14.20;11.40;;;;;;;11.54;100.00;95745.94;4988020;28;20113;-87
2023/05/15 03:26:02;;;;;;;14.87;11.80;;;;;;;11.62;100.00;95744.22;4994865;28;20037;-87
2023/05/15 03:28:27;;;;;;;16.67;11.53;;;;;;;11.63;100.00;95748.50;4989835;28;20092;-87
2023/05/15 03:30:53;;;;;;;17.67;11.57;;;;;;;11.58;100.00;95741.13;4982873;28;20480;-87
2023/05/15 03:33:19;;;;;;;17.57;12.40;;;;;;;11.55;100.00;95739.66;4974032;28;20385;-87
2023/05/15 03:35:45;;;;;;;16.00;11.70;;;;;;;11.61;100.00;95750.50;4991515;28;20088;-87
2023/05/15 03:38:10;;;;;;;18.13;11.67;;;;;;;11.50;100.00;95760.47;5003061;28;20030;-87
2023/05/15 03:40:38;;;;;;;17.77;12.90;;;;;;;11.40;100.00;95765.16;4987395;28;20094;-86
2023/05/15 03:43:04;;;;;;;19.33;12.83;;;;;;;11.44;100.00;95766.44;5017928;28;20029;-87
2023/05/15 03:45:32;;;;;;;15.80;12.30;;;;;;;11.52;100.00;95771.63;4977377;28;20018;-87
2023/05/15 03:47:57;;;;;;;14.10;10.93;;;;;;;11.44;100.00;95778.78;4982362;28;20038;-87
2023/05/15 03:50:24;;;;;;;15.63;9.40;;;;;;;11.50;100.00;95771.00;4994738;28;20030;-87
2023/05/15 03:52:49;;;;;;;12.40;8.80;;;;;;;11.40;100.00;95766.94;4995228;28;20088;-87
2023/05/15 03:55:15;;;;;;;14.57;9.43;;;;;;;11.29;100.00;95778.69;4988149;28;20041;-87
2023/05/15 03:57:41;;;;;;;14.63;10.70;;;;;;;11.49;100.00;95774.59;4994247;28;20786;-87
2023/05/15 04:00:09;;;;;;;13.10;10.00;;;;;;;11.46;100.00;95772.31;4982617;28;20092;-87
2023/05/15 04:02:44;;;;;;;15.73;11.00;;;;;;;11.56;100.00;95775.53;4994170;28;20116;-87
2023/05/15 04:05:10;;;;;;;19.17;11.73;;;;;;;11.50;100.00;95780.69;4991767;28;20037;-87
2023/05/15 04:07:36;;;;;;;15.93;11.60;;;;;;;11.57;100.00;95768.47;4979540;28;20133;-87
2023/05/15 04:10:02;;;;;;;18.40;12.40;;;;;;;11.75;100.00;95765.53;4993506;28;20029;-88
2023/05/15 04:12:30;;;;;;;14.07;10.37;;;;;;;11.71;100.00;95764.25;4986975;28;20026;-87
2023/05/15 04:15:35;;;;;;;13.00;9.90;;;;;;;11.62;100.00;95767.94;4995179;28;20181;-87
2023/05/15 04:18:10;;;;;;;14.47;10.37;;;;;;;11.71;100.00;95770.31;4882225;29;20031;-87
2023/05/15 04:20:35;;;;;;;16.17;10.63;;;;;;;11.68;100.00;95767.22;4884591;29;20039;-87
2023/05/15 04:23:03;;;;;;;13.63;9.87;;;;;;;11.64;100.00;95764.13;4926284;28;20037;-87
2023/05/15 04:25:28;;;;;;;15.37;11.00;;;;;;;11.39;100.00;95773.19;4982069;28;20036;-87
2023/05/15 04:27:54;;;;;;;15.23;11.77;;;;;;;11.30;100.00;95770.63;4966645;28;20109;-87
2023/05/15 04:30:20;;;;;;;15.20;11.80;;;;;;;11.26;100.00;95771.97;4974455;28;20038;-87
2023/05/15 04:32:46;;;;;;;14.53;11.27;;;;;;;11.50;100.00;95771.00;4978442;28;20041;-87
2023/05/15 04:35:13;;;;;;;14.70;10.93;;;;;;;11.59;100.00;95769.09;4983956;28;20022;-87
2023/05/15 04:37:39;;;;;;;16.53;12.00;;;;;;;11.47;100.00;95776.59;4972472;28;20395;-87
2023/05/15 04:40:06;;;;;;;18.63;11.77;;;;;;;11.51;100.00;95770.00;4994540;28;20018;-87
2023/05/15 04:42:35;;;;;;;13.27;10.13;;;;;;;11.62;100.00;95771.38;4990351;28;20034;-87
2023/05/15 04:45:01;;;;;;;15.00;11.23;;;;;;;11.72;100.00;95773.78;4991056;28;20018;-78
2023/05/15 04:47:27;;;;;;;14.33;10.47;;;;;;;11.81;100.00;95780.63;5008747;28;20030;-88
2023/05/15 04:49:53;;;;;;;13.90;9.53;;;;;;;12.07;100.00;95774.97;4989984;28;20502;-87
2023/05/15 04:52:19;;;;;;;17.70;12.63;;;;;;;11.73;100.00;95778.03;4974072;28;20036;-88
2023/05/15 04:54:50;;;;;;;15.07;10.53;;;;;;;11.90;100.00;95774.28;4990464;28;20519;-89
2023/05/15 04:57:16;;;;;;;15.90;10.93;;;;;;;12.11;100.00;95764.91;4993260;28;20380;-87
2023/05/15 04:59:41;;;;;;;13.97;10.10;;;;;;;12.17;100.00;95766.78;4986342;28;20026;-88
2023/05/15 05:02:09;;;;;;;17.60;10.63;;;;;;;12.40;100.00;95764.09;4979637;28;20053;-88
2023/05/15 05:04:35;;;;;;;14.10;10.33;;;;;;;12.45;100.00;95765.19;4993568;28;20030;-88
2023/05/15 05:07:17;;;;;;;19.07;13.47;;;;;;;12.48;100.00;95767.47;4992990;28;20022;-88
2023/05/15 05:09:43;;;;;;;17.43;12.67;;;;;;;12.38;100.00;95763.47;4984582;28;20025;-88
2023/05/15 05:12:09;;;;;;;16.10;11.07;;;;;;;12.78;100.00;95767.44;4993100;28;20103;-89
2023/05/15 05:14:47;;;;;;;12.80;10.00;;;;;;;12.90;100.00;95768.56;4991706;28;20026;-88
2023/05/15 05:17:13;;;;;;;14.23;10.33;;;;;;;12.61;100.00;95768.63;4989215;28;20030;-86
2023/05/15 05:19:55;;;;;;;12.90;9.50;;;;;;;12.74;100.00;95764.34;4976905;28;20024;-87
2023/05/15 05:22:21;;;;;;;14.95;10.15;;;;;;;12.71;100.00;95769.19;5002468;28;20056;-86
2023/05/15 05:24:46;;;;;;;13.63;10.07;;;;;;;12.81;100.00;95767.06;4993238;28;20476;-86
2023/05/15 05:27:12;;;;;;;14.57;11.17;;;;;;;12.54;100.00;95767.72;4995317;28;20642;-87
2023/05/15 05:29:38;;;;;;;13.13;9.70;;;;;;;12.71;100.00;95770.00;4989762;28;20483;-87
2023/05/15 05:32:05;;;;;;;13.27;9.77;;;;;;;12.95;100.00;95766.22;4995089;28;20014;-87
2023/05/15 05:34:31;;;;;;;13.97;10.07;;;;;;;13.37;100.00;95763.84;5002293;28;20417;-87
2023/05/15 05:36:56;;;;;;;16.17;10.70;;;;;;;13.72;100.00;95762.16;4992806;28;20480;-86
2023/05/15 05:39:23;;;;;;;12.97;10.17;;;;;;;14.10;100.00;95754.72;4986277;28;20056;-87
2023/05/15 05:41:49;;;;;;;13.93;10.23;;;;;;;14.34;100.00;95761.38;4993477;28;20068;-75
2023/05/15 05:44:14;;;;;;;11.67;8.70;;;;;;;14.35;100.00;95747.16;5001756;28;20034;-84
2023/05/15 05:46:40;;;;;;;12.33;8.37;;;;;;;14.84;100.00;95754.13;4983774;28;20025;-84
2023/05/15 05:49:05;;;;;;;11.13;8.13;;;;;;;15.59;100.00;95746.16;4984731;28;20025;-84
2023/05/15 05:51:31;;;;;;;14.77;8.87;;;;;;;15.67;100.00;95748.69;4986123;28;20025;-85
2023/05/15 05:53:56;;;;;;;11.47;8.63;;;;;;;15.89;100.00;95740.50;4991669;28;20029;-84
2023/05/15 05:56:22;;;;;;;11.00;7.93;;;;;;;15.90;100.00;95744.81;4992963;28;20084;-85
2023/05/15 05:58:48;;;;;;;11.30;7.97;;;;;;;16.41;100.00;95736.19;4985450;28;20030;-85
2023/05/15 06:01:15;;;;;;;12.47;8.30;;;;;;;16.22;100.00;95743.94;4984261;28;20177;-85
2023/05/15 06:03:42;;;;;;;11.03;7.93;;;;;;;16.70;100.00;95746.31;4976495;28;20049;-85
2023/05/15 06:06:08;;;;;;;9.90;7.30;;;;;;;16.37;100.00;95746.41;4985666;28;20026;-84
2023/05/15 06:08:33;;;;;;;11.33;8.20;;;;;;;16.02;100.00;95745.81;4967532;28;20435;-85
2023/05/15 06:10:59;;;;;;;10.03;7.10;;;;;;;16.34;100.00;95746.00;4984728;28;20510;-85
2023/05/15 06:13:27;;;;;;;10.27;7.50;;;;;;;16.51;100.00;95747.19;4989002;28;20034;-86
2023/05/15 06:15:53;;;;;;;9.83;7.23;;;;;;;17.41;100.00;95745.41;4965555;28;20045;-84
2023/05/15 06:18:18;;;;;;;8.63;6.90;;;;;;;16.72;100.00;95748.75;5008894;28;20096;-86
2023/05/15 06:20:48;;;;;;;10.43;6.13;;;;;;;16.96;100.00;95744.59;4992974;28;20076;-86
2023/05/15 06:23:13;;;;;;;11.67;6.87;;;;;;;17.68;100.00;95732.75;4992009;28;20033;-85
2023/05/15 06:25:39;;;;;;;10.60;6.18;;;;;;;17.57;100.00;95732.59;4991499;28;20029;-85
2023/05/15 06:28:05;;;;;;;9.63;6.10;;;;;;;17.94;100.00;95735.44;4988559;28;20030;-85
2023/05/15 06:30:30;;;;;;;9.40;5.93;;;;;;;17.59;100.00;95726.03;4985233;28;20026;-85
2023/05/15 06:32:56;;;;;;;11.18;6.13;;;;;;;17.42;100.00;95733.72;4975410;28;20030;-86
2023/05/15 06:35:24;;;;;;;9.00;6.20;;;;;;;17.19;100.00;95736.91;5001656;28;20034;-85
2023/05/15 06:37:51;;;;;;;7.78;5.70;;;;;;;17.06;100.00;95739.66;4988629;28;20093;-85
2023/05/15 06:40:16;;;;;;;8.95;5.32;;;;;;;17.78;100.00;95747.44;4987391;28;20030;-86
2023/05/15 06:42:42;;;;;;;11.68;6.40;;;;;;;17.76;100.00;95749.47;4975866;28;20068;-85
2023/05/15 06:45:08;;;;;;;8.60;5.57;;;;;;;17.16;100.00;95752.47;4989547;28;20025;-85
2023/05/15 06:47:34;;;;;;;8.75;6.20;;;;;;;17.47;100.00;95751.72;4986469;28;20056;-85
2023/05/15 06:49:59;;;;;;;7.57;5.55;;;;;;;17.16;100.00;95755.94;4975711;28;20053;-85
2023/05/15 06:52:25;;;;;;;7.70;5.60;;;;;;;17.74;100.00;95751.50;4992702;28;20045;-86
2023/05/15 06:54:51;;;;;;;8.77;5.60;;;;;;;18.11;100.00;95747.19;4991135;28;20035;-86
2023/05/15 06:57:17;;;;;;;8.18;5.95;;;;;;;18.59;100.00;95749.97;4995763;28;20510;-85
2023/05/15 06:59:43;;;;;;;8.25;6.00;;;;;;;18.39;100.00;95746.69;4980857;28;20024;-84
2023/05/15 07:02:08;;;;;;;7.90;5.85;;;;;;;19.36;100.00;95749.47;4979284;28;20022;-86
2023/05/15 07:04:34;;;;;;;11.02;6.30;;;;;;;18.47;100.00;95753.56;4995712;28;20072;-86
2023/05/15 07:07:00;;;;;;;7.35;5.30;;;;;;;18.48;100.00;95753.38;4984348;28;20045;-85
2023/05/15 07:09:25;;;;;;;7.63;5.47;;;;;;;19.22;100.00;95742.72;4973010;28;20030;-86
2023/05/15 07:11:51;;;;;;;8.32;5.07;;;;;;;20.31;100.00;95751.31;4985618;28;20026;-85
2023/05/15 07:14:17;;;;;;;7.22;4.75;;;;;;;20.09;100.00;95747.63;5007575;28;20032;-85
2023/05/15 07:16:44;;;;;;;12.75;5.50;;;;;;;20.17;100.00;95749.94;4981006;28;20049;-86
2023/05/15 07:19:09;;;;;;;7.25;4.22;;;;;;;20.85;100.00;95741.31;4981953;28;20072;-86
2023/05/15 07:21:35;;;;;;;7.00;4.85;;;;;;;20.16;100.00;95753.66;4996898;28;20014;-85
2023/05/15 07:24:01;;;;;;;7.45;5.05;;;;;;;19.58;100.00;95752.44;5009008;28;20041;-86
2023/05/15 07:26:26;;;;;;;7.38;4.93;;;;;;;20.99;100.00;95741.03;4985679;28;20021;-86
2023/05/15 07:28:52;;;;;;;7.90;4.75;;;;;;;20.82;100.00;95739.09;5002144;28;20037;-85
2023/05/15 07:31:26;;;;;;;8.73;4.80;;;;;;;21.46;100.00;95746.25;4982207;28;20030;-86
2023/05/15 07:33:52;;;;;;;6.45;4.50;;;;;;;21.02;100.00;95746.72;4996183;28;20026;-86
2023/05/15 07:36:17;;;;;;;8.63;4.88;;;;;;;21.68;100.00;95743.72;4994139;28;20503;-85
2023/05/15 07:38:44;;;;;;;6.95;4.50;;;;;;;21.76;100.00;95738.78;4987467;28;20014;-85
2023/05/15 07:41:10;;;;;;;8.82;4.57;;;;;;;21.72;100.00;95740.31;4985681;28;20033;-86
2023/05/15 07:43:35;;;;;;;6.10;4.50;;;;;;;21.72;100.00;95740.31;4992031;28;20018;-86
2023/05/15 07:46:01;;;;;;;6.85;4.25;;;;;;;22.17;100.00;95738.69;4983522;28;20071;-86
2023/05/15 07:48:26;;;;;;;5.93;4.22;;;;;;;21.79;100.00;95746.31;4995526;28;20037;-85
2023/05/15 07:50:52;;;;;;;6.30;4.50;;;;;;;20.82;100.00;95747.13;5004333;28;20480;-85
2023/05/15 07:53:18;;;;;;;7.75;4.95;;;;;;;21.92;100.00;95739.84;4977674;28;20033;-85
2023/05/15 07:55:45;;;;;;;5.68;3.65;;;;;;;23.32;100.00;95731.63;4979076;28;20018;-85
2023/05/15 07:58:10;;;;;;;6.28;3.83;;;;;;;23.01;100.00;95733.16;4979603;28;20357;-85
2023/05/15 08:00:36;;;;;;;6.75;4.43;;;;;;;22.69;100.00;95728.44;4994214;28;20029;-85
2023/05/15 08:03:02;;;;;;;5.05;3.40;;;;;;;22.53;100.00;95729.28;4989167;28;20029;-84
2023/05/15 08:05:58;;;;;;;5.65;3.83;;;;;;;23.60;100.00;95729.78;4994191;28;20014;-86
2023/05/15 08:08:24;;;;;;;5.93;3.58;;;;;;;24.53;100.00;95724.94;5008697;28;20034;-86
2023/05/15 08:10:50;;;;;;;4.68;3.53;;;;;;;24.23;100.00;95720.94;4994187;28;20503;-86
2023/05/15 08:13:15;;;;;;;4.93;3.45;;;;;;;23.37;100.00;95725.50;4994697;28;20018;-85
2023/05/15 08:15:42;;;;;;;5.43;3.45;;;;;;;22.33;100.00;95727.94;4976047;28;20029;-86
2023/05/15 08:18:10;;;;;;;6.20;3.55;;;;;;;22.01;100.00;95724.19;5005451;28;20552;-86
2023/05/15 08:20:37;;;;;;;5.97;3.60;;;;;;;21.29;100.00;95725.59;4986738;28;20049;-86
2023/05/15 08:23:03;;;;;;;6.20;3.72;;;;;;;20.77;100.00;95728.31;5008010;28;20072;-85
2023/05/15 08:25:29;;;;;;;6.65;3.50;;;;;;;20.49;100.00;95732.53;4978723;28;20022;-86
2023/05/15 08:27:55;;;;;;;5.55;3.38;;;;;;;20.40;100.00;95725.91;5006105;28;20054;-86
2023/05/15 08:30:20;;;;;;;5.97;3.10;;;;;;;20.29;100.00;95729.41;4977580;28;20395;-85
2023/05/15 08:32:47;;;;;;;6.05;3.58;;;;;;;20.76;100.00;95725.88;4982672;28;20034;-86
2023/05/15 08:35:14;;;;;;;8.18;3.60;;;;;;;21.60;100.00;95720.84;4986520;28;20033;-86
2023/05/15 08:37:39;;;;;;;8.10;4.28;;;;;;;22.62;100.00;95717.09;4975806;28;20023;-86
2023/05/15 08:40:06;;;;;;;5.28;3.35;;;;;;;23.61;100.00;95713.44;4967929;28;20041;-86
2023/05/15 08:42:48;;;;;;;5.88;3.08;;;;;;;23.55;100.00;95719.81;4984645;28;20076;-86
2023/05/15 08:45:14;;;;;;;5.95;3.20;;;;;;;23.06;100.00;95711.75;4979752;28;20052;-86
2023/05/15 08:47:42;;;;;;;5.13;3.28;;;;;;;21.64;100.00;95713.97;4988958;28;20486;-86
2023/05/15 08:50:13;;;;;;;5.78;3.65;;;;;;;21.72;100.00;95712.75;4991006;28;20029;-86
2023/05/15 08:52:45;;;;;;;5.10;3.53;;;;;;;21.46;100.00;95703.47;4989979;28;20778;-86
2023/05/15 08:55:15;;;;;;;4.97;3.33;;;;;;;20.92;100.00;95709.94;4981899;28;20030;-88
2023/05/15 08:57:41;;;;;;;5.00;3.17;;;;;;;22.34;100.00;95699.28;4991332;28;20033;-88
2023/05/15 09:00:07;;;;;;;5.75;3.47;;;;;;;22.70;100.00;95697.06;4977027;28;20026;-88
2023/05/15 09:02:37;;;;;;;5.95;3.05;;;;;;;22.86;100.00;95700.75;4995992;28;20121;-87
2023/05/15 09:05:07;;;;;;;6.13;3.92;;;;;;;23.19;100.00;95702.53;4996690;28;20026;-88
2023/05/15 09:07:33;;;;;;;5.45;3.03;;;;;;;22.90;100.00;95693.84;4997529;28;20026;-88
2023/05/15 09:10:01;;;;;;;7.82;3.13;;;;;;;23.49;90.27;95699.34;4996823;28;20040;-88
2023/05/15 09:12:27;;;;;;;5.50;3.40;;;;;;;22.76;97.85;95702.25;4984151;28;20029;-87
2023/05/15 09:15:13;;;;;;;7.13;3.53;;;;;;;22.54;96.89;95696.09;5007700;28;20018;-88
2023/05/15 09:17:39;;;;;;;5.00;3.20;;;;;;;23.80;94.62;95694.28;4993607;28;20027;-88
2023/05/15 09:20:06;;;;;;;5.75;3.50;;;;;;;23.02;89.70;95695.34;4995719;28;20484;-88
2023/05/15 09:22:35;;;;;;;5.03;3.40;;;;;;;22.21;95.54;95695.09;4980009;28;20136;-89
2023/05/15 09:25:03;;;;;;;6.00;3.33;;;;;;;22.22;100.00;95699.38;4996113;28;20174;-88
2023/05/15 09:27:28;;;;;;;5.97;3.63;;;;;;;21.73;100.00;95699.13;4988217;28;20025;-88
2023/05/15 09:29:56;;;;;;;6.53;4.13;;;;;;;21.11;100.00;95699.84;4996565;28;20030;-88
2023/05/15 09:32:26;;;;;;;5.43;3.92;;;;;;;21.06;100.00;95699.78;4987798;28;20030;-88
2023/05/15 09:34:52;;;;;;;6.18;4.20;;;;;;;20.70;100.00;95696.38;4975253;28;20034;-88
2023/05/15 09:37:28;;;;;;;5.35;3.75;;;;;;;20.61;100.00;95697.78;4992786;28;20049;-88
2023/05/15 09:39:54;;;;;;;5.60;3.65;;;;;;;20.80;100.00;95692.31;4997236;28;20054;-87
2023/05/15 09:42:20;;;;;;;5.80;4.10;;;;;;;21.08;100.00;95699.53;4993210;28;20430;-88
2023/05/15 09:44:45;;;;;;;5.93;3.90;;;;;;;20.80;100.00;95695.78;4994309;28;20046;-88
2023/05/15 09:47:13;;;;;;;6.07;3.65;;;;;;;21.53;100.00;95691.56;4987683;28;20030;-88
2023/05/15 09:49:39;;;;;;;5.65;3.70;;;;;;;21.06;100.00;95688.25;4998117;28;20046;-88
2023/05/15 09:52:08;;;;;;;5.63;3.80;;;;;;;22.21;100.00;95678.22;4994155;28;20041;-88
2023/05/15 09:54:36;;;;;;;6.82;4.10;;;;;;;22.23;95.32;95676.06;4986846;28;20029;-88
2023/05/15 09:57:12;;;;;;;6.10;3.55;;;;;;;22.20;98.61;95676.56;4992578;28;20057;-88
2023/05/15 09:59:44;;;;;;;5.80;3.60;;;;;;;22.16;98.17;95667.41;4979747;28;20096;-89
2023/05/15 10:02:21;;;;;;;6.82;3.65;;;;;;;22.61;100.00;95672.59;5008172;28;20036;-88
2023/05/15 10:04:53;;;;;;;5.53;3.05;;;;;;;22.59;100.00;95675.50;5002231;28;20022;-87
2023/05/15 10:07:27;;;;;;;5.15;3.65;;;;;;;23.78;96.32;95672.25;5004123;28;20046;-89
2023/05/15 10:09:52;;;;;;;6.25;3.85;;;;;;;24.54;85.49;95671.97;5002990;28;20113;-88
2023/05/15 10:12:18;;;;;;;5.45;3.92;;;;;;;24.76;77.35;95663.75;4992447;28;20030;-88
2023/05/15 10:14:45;;;;;;;5.63;3.83;;;;;;;24.67;83.00;95666.13;5003254;28;20056;-88
2023/05/15 10:17:13;;;;;;;5.80;3.13;;;;;;;24.69;85.50;95664.78;4999998;28;20530;-88
2023/05/15 10:19:40;;;;;;;4.90;3.08;;;;;;;23.47;89.87;95670.09;5011176;28;20384;-90
2023/05/15 10:22:08;;;;;;;5.78;3.42;;;;;;;23.42;89.95;95671.91;4986885;28;20041;-88
2023/05/15 10:24:34;;;;;;;6.32;3.72;;;;;;;23.10;89.34;95669.97;5015442;28;20021;-89
2023/05/15 10:27:00;;;;;;;4.93;3.40;;;;;;;22.83;90.80;95659.16;4996622;28;20050;-87
2023/05/15 10:29:28;;;;;;;6.40;3.58;;;;;;;23.11;94.11;95666.22;4990188;28;20030;-89
2023/05/15 10:31:54;;;;;;;4.72;3.47;;;;;;;23.49;96.71;95667.13;5005252;28;20029;-88
2023/05/15 10:34:20;;;;;;;10.90;8.48;;;;;;;23.43;99.42;95658.22;5025468;28;20018;-88
2023/05/15 10:36:48;;;;;;;10.57;5.72;;;;;;;23.36;100.00;95673.72;4991825;28;20077;-90
2023/05/15 10:39:15;;;;;;;7.60;4.45;;;;;;;22.52;100.00;95658.00;4981118;28;20033;-88
2023/05/15 10:41:41;;;;;;;6.70;3.90;;;;;;;22.48;100.00;95663.03;4968079;28;20018;-87
2023/05/15 10:44:07;;;;;;;11.05;5.40;;;;;;;22.73;100.00;95659.06;4987834;28;20022;-87
2023/05/15 10:46:35;;;;;;;7.65;4.00;;;;;;;22.41;100.00;95658.94;4987360;28;20503;-87
2023/05/15 10:49:01;;;;;;;6.75;3.53;;;;;;;21.98;100.00;95655.88;4994742;28;20066;-87
2023/05/15 10:51:29;;;;;;;7.13;4.63;;;;;;;21.75;100.00;95659.53;4992290;28;20022;-87
2023/05/15 10:53:55;;;;;;;6.47;4.05;;;;;;;21.12;100.00;95660.56;4991462;28;20111;-87
2023/05/15 10:56:37;;;;;;;34.78;31.02;;;;;;;21.93;100.00;95652.31;4981760;28;20503;-87
2023/05/15 10:59:10;;;;;;;6.05;4.22;;;;;;;22.05;100.00;95645.00;4977842;28;20026;-87
2023/05/15 11:01:49;;;;;;;6.75;4.32;;;;;;;21.79;100.00;95647.28;5002068;28;20058;-87
2023/05/15 11:04:17;;;;;;;6.20;3.95;;;;;;;21.89;100.00;95639.41;4995063;28;20117;-87
2023/05/15 11:06:45;;;;;;;6.97;4.25;;;;;;;21.68;100.00;95642.03;5002593;28;20480;-87
2023/05/15 11:09:26;;;;;;;7.40;4.22;;;;;;;22.34;100.00;95640.34;4996019;28;20367;-87
2023/05/15 11:11:51;;;;;;;5.78;3.78;;;;;;;22.25;100.00;95634.59;5008672;28;20018;-87
2023/05/15 11:14:24;;;;;;;6.35;4.53;;;;;;;23.58;100.00;95625.34;5008020;28;20052;-87
2023/05/15 11:16:53;;;;;;;;;;;;;;;24.24;87.58;95619.63;5007858;28;20022;-87
2023/05/15 11:19:22;;;;;;;5.13;3.53;;;;;;;24.52;86.97;95615.78;5012350;28;19913;-87
2023/05/15 11:21:59;;;;;;;6.18;3.75;;;;;;;24.76;89.72;95605.41;5000947;28;20022;-88
2023/05/15 11:24:52;;;;;;;5.78;3.88;;;;;;;25.02;80.52;95598.22;4980438;28;20508;-88
2023/05/15 11:27:22;;;;;;;9.52;3.72;;;;;;;25.34;74.11;95589.13;4976508;28;20041;-87